createdAt,value
2022-09-28T00:02:02.790Z,7.62
2022-09-28T00:05:04.410Z,7.66
2022-09-28T00:08:05.807Z,7.72
2022-09-28T00:11:07.457Z,7.75
2022-09-28T00:14:08.944Z,7.77
2022-09-28T00:17:12.164Z,7.76
2022-09-28T00:20:13.590Z,7.78
2022-09-28T00:23:14.956Z,7.84
2022-09-28T00:26:16.403Z,7.87
2022-09-28T00:29:25.124Z,7.92
2022-09-28T00:32:28.636Z,7.97
2022-09-28T00:35:30.046Z,7.96
2022-09-28T00:38:31.491Z,7.98
2022-09-28T00:41:32.886Z,8.00
2022-09-28T00:44:36.095Z,8.05
2022-09-28T00:47:44.068Z,8.10
2022-09-28T00:50:45.886Z,8.20
2022-09-28T00:53:47.263Z,8.20
2022-09-28T00:56:48.650Z,8.21
2022-09-28T00:59:50.206Z,8.21
2022-09-28T01:02:51.584Z,8.23
2022-09-28T01:05:53.007Z,8.23
2022-09-28T01:08:55.582Z,8.23
2022-09-28T01:11:56.991Z,8.34
2022-09-28T01:14:58.402Z,8.34
2022-09-28T01:18:07.113Z,8.35
2022-09-28T01:21:16.850Z,8.45
2022-09-28T01:24:23.945Z,8.42
2022-09-28T01:27:25.268Z,8.41
2022-09-28T01:30:26.635Z,8.40
2022-09-28T01:33:28.843Z,8.39
2022-09-28T01:36:35.082Z,8.39
2022-09-28T01:39:37.571Z,8.37
2022-09-28T01:42:38.993Z,8.36
2022-09-28T01:45:41.596Z,8.38
2022-09-28T01:48:46.273Z,8.38
2022-09-28T01:51:47.619Z,8.38
2022-09-28T01:54:50.455Z,8.39
2022-09-28T01:57:53.140Z,8.37
2022-09-28T02:00:56.575Z,8.37
2022-09-28T02:04:04.138Z,8.37
2022-09-28T02:07:07.637Z,8.37
2022-09-28T02:10:16.703Z,8.41
2022-09-28T02:13:23.045Z,8.40
2022-09-28T02:16:24.437Z,8.38
2022-09-28T02:19:26.452Z,8.36
2022-09-28T02:22:43.064Z,8.34
2022-09-28T02:25:49.852Z,8.33
2022-09-28T02:28:51.249Z,8.28
2022-09-28T02:31:52.685Z,8.30
2022-09-28T02:34:55.303Z,8.34
2022-09-28T02:37:56.669Z,8.33
2022-09-28T02:41:05.999Z,8.30
2022-09-28T02:44:26.210Z,8.29
2022-09-28T02:47:33.176Z,8.32
2022-09-28T02:50:40.739Z,8.33
2022-09-28T02:54:08.497Z,8.32
2022-09-28T02:57:11.282Z,8.28
2022-09-28T03:00:18.162Z,8.27
2022-09-28T03:03:27.326Z,8.24
2022-09-28T03:06:30.842Z,8.25
2022-09-28T03:09:33.415Z,8.24
2022-09-28T03:12:34.751Z,8.25
2022-09-28T03:15:36.158Z,8.24
2022-09-28T03:18:37.535Z,8.25
2022-09-28T03:21:38.888Z,8.24
2022-09-28T03:24:40.241Z,8.22
2022-09-28T03:27:41.874Z,8.24
2022-09-28T03:30:43.483Z,8.25
2022-09-28T03:33:44.854Z,8.21
2022-09-28T03:36:46.292Z,8.21
2022-09-28T03:39:48.137Z,8.22
2022-09-28T03:42:49.620Z,8.23
2022-09-28T03:45:51.681Z,8.26
2022-09-28T03:48:53.089Z,8.26
2022-09-28T03:51:54.552Z,8.23
2022-09-28T03:54:55.937Z,8.20
2022-09-28T03:57:57.364Z,8.20
2022-09-28T04:01:03.233Z,8.22
2022-09-28T04:04:04.707Z,8.18
2022-09-28T04:07:06.050Z,8.19
2022-09-28T04:10:07.744Z,8.16
2022-09-28T04:13:09.114Z,8.16
2022-09-28T04:16:10.554Z,8.18
2022-09-28T04:19:12.028Z,8.21
2022-09-28T04:22:14.377Z,8.20
2022-09-28T04:25:15.810Z,8.21
2022-09-28T04:28:36.068Z,8.21
2022-09-28T04:31:40.672Z,8.22
2022-09-28T04:34:44.303Z,8.20
2022-09-28T04:37:45.985Z,8.20
2022-09-28T04:40:49.075Z,8.20
2022-09-28T04:43:50.480Z,8.21
2022-09-28T04:46:51.963Z,8.20
2022-09-28T04:49:53.381Z,8.20
2022-09-28T04:52:54.801Z,8.24
2022-09-28T04:56:00.086Z,8.20
2022-09-28T04:59:01.474Z,8.24
2022-09-28T05:02:03.092Z,8.20
2022-09-28T05:05:04.638Z,8.24
2022-09-28T05:08:06.012Z,8.19
2022-09-28T05:11:08.350Z,8.20
2022-09-28T05:14:10.703Z,8.19
2022-09-28T05:17:12.059Z,8.18
2022-09-28T05:20:13.511Z,8.19
2022-09-28T05:23:15.592Z,8.20
2022-09-28T05:26:17.039Z,8.20
2022-09-28T05:29:18.653Z,8.15
2022-09-28T05:32:20.098Z,8.13
2022-09-28T05:35:21.520Z,8.15
2022-09-28T05:38:22.962Z,8.16
2022-09-28T05:41:24.438Z,8.15
2022-09-28T05:44:26.027Z,8.13
2022-09-28T05:47:27.401Z,8.13
2022-09-28T05:50:28.799Z,8.14
2022-09-28T05:53:30.160Z,8.10
2022-09-28T05:56:31.609Z,8.14
2022-09-28T05:59:35.127Z,8.10
2022-09-28T06:02:36.594Z,8.14
2022-09-28T06:05:39.307Z,8.13
2022-09-28T06:08:43.562Z,8.14
2022-09-28T06:11:44.999Z,8.20
2022-09-28T06:14:46.690Z,8.18
2022-09-28T06:17:48.373Z,8.21
2022-09-28T06:20:49.832Z,8.17
2022-09-28T06:23:51.206Z,8.21
2022-09-28T06:26:52.551Z,8.21
2022-09-28T06:29:53.942Z,8.23
2022-09-28T06:32:55.723Z,8.28
2022-09-28T06:35:58.557Z,8.23
2022-09-28T06:38:59.933Z,8.23
2022-09-28T06:42:03.265Z,8.25
2022-09-28T06:45:04.878Z,8.31
2022-09-28T06:48:06.329Z,8.34
2022-09-28T06:51:07.715Z,8.38
2022-09-28T06:54:09.275Z,8.36
2022-09-28T06:57:10.737Z,8.41
2022-09-28T07:00:12.362Z,8.37
2022-09-28T07:03:14.333Z,8.34
2022-09-28T07:06:15.775Z,8.39
2022-09-28T07:09:31.305Z,8.36
2022-09-28T07:12:35.043Z,8.42
2022-09-28T07:15:37.952Z,8.37
2022-09-28T07:18:39.367Z,8.48
2022-09-28T07:21:40.778Z,8.50
2022-09-28T07:24:43.937Z,8.49
2022-09-28T07:27:45.292Z,8.41
2022-09-28T07:30:46.802Z,8.38
2022-09-28T07:33:51.059Z,8.38
2022-09-28T07:36:58.896Z,8.40
2022-09-28T07:40:19.075Z,8.39
2022-09-28T07:43:20.854Z,8.34
2022-09-28T07:46:22.953Z,8.38
2022-09-28T07:49:24.394Z,8.38
2022-09-28T07:52:26.338Z,8.43
2022-09-28T07:55:27.748Z,8.47
2022-09-28T07:58:29.348Z,8.48
2022-09-28T08:01:31.277Z,8.48
2022-09-28T08:04:32.684Z,8.51
2022-09-28T08:07:34.826Z,8.61
2022-09-28T08:10:37.591Z,8.74
2022-09-28T08:13:39.069Z,8.71
2022-09-28T08:16:40.889Z,8.73
2022-09-28T08:20:00.745Z,8.75
2022-09-28T08:23:08.265Z,8.94
2022-09-28T08:26:14.595Z,8.95
2022-09-28T08:29:16.985Z,8.98
2022-09-28T08:32:18.675Z,8.91
2022-09-28T08:35:20.059Z,8.98
2022-09-28T08:38:21.469Z,8.93
2022-09-28T08:41:33.154Z,9.01
2022-09-28T08:48:12.625Z,9.03
2022-09-28T08:51:18.021Z,9.05
2022-09-28T08:54:34.029Z,9.02
2022-09-28T08:57:41.995Z,8.98
2022-09-28T09:00:47.420Z,9.03
2022-09-28T09:03:48.935Z,9.07
2022-09-28T09:06:54.283Z,9.23
2022-09-28T09:10:07.585Z,9.20
2022-09-28T09:13:12.437Z,9.29
2022-09-28T09:16:32.159Z,9.27
2022-09-28T09:19:52.428Z,9.30
2022-09-28T09:22:58.792Z,9.23
2022-09-28T09:26:03.871Z,9.34
2022-09-28T09:29:05.184Z,9.42
2022-09-28T09:32:21.811Z,9.43
2022-09-28T09:35:32.073Z,9.48
2022-09-28T09:38:33.389Z,9.39
2022-09-28T09:41:53.926Z,9.45
2022-09-28T09:45:11.199Z,9.41
2022-09-28T09:48:18.932Z,9.53
2022-09-28T09:51:49.672Z,9.64
2022-09-28T09:54:58.663Z,9.77
2022-09-28T09:58:03.028Z,9.82
2022-09-28T10:01:08.392Z,9.86
2022-09-28T10:04:20.636Z,9.94
2022-09-28T10:07:25.866Z,9.86
2022-09-28T10:10:30.726Z,9.89
2022-09-28T10:13:34.019Z,9.78
2022-09-28T10:16:35.468Z,9.57
2022-09-28T10:19:36.947Z,9.68
2022-09-28T10:22:38.316Z,9.83
2022-09-28T10:25:39.692Z,9.81
2022-09-28T10:28:40.992Z,9.86
2022-09-28T10:31:46.435Z,9.86
2022-09-28T10:34:50.841Z,9.78
2022-09-28T10:38:12.796Z,9.86
2022-09-28T10:41:16.598Z,9.68
2022-09-28T10:44:18.704Z,9.85
2022-09-28T10:47:20.420Z,10.14
2022-09-28T10:50:21.761Z,10.17
2022-09-28T10:53:23.125Z,10.10
2022-09-28T10:56:26.953Z,10.21
2022-09-28T10:59:31.368Z,10.21
2022-09-28T11:02:36.611Z,10.15
2022-09-28T11:05:38.779Z,10.20
2022-09-28T11:08:44.565Z,10.13
2022-09-28T11:11:46.075Z,10.01
2022-09-28T11:14:52.655Z,10.02
2022-09-28T11:17:54.032Z,9.92
2022-09-28T11:21:10.061Z,9.98
2022-09-28T11:24:19.077Z,10.01
2022-09-28T11:27:25.374Z,10.14
2022-09-28T11:30:49.922Z,10.18
2022-09-28T11:33:51.313Z,10.07
2022-09-28T11:37:01.423Z,10.14
2022-09-28T11:40:15.117Z,10.02
2022-09-28T11:43:16.884Z,10.08
2022-09-28T11:46:27.281Z,10.06
2022-09-28T11:49:45.310Z,10.06
2022-09-28T11:53:01.737Z,10.10
2022-09-28T11:56:08.828Z,10.16
2022-09-28T11:59:15.732Z,10.23
2022-09-28T12:02:22.066Z,10.11
2022-09-28T12:05:25.125Z,10.18
2022-09-28T12:08:27.804Z,10.16
2022-09-28T12:11:32.430Z,10.14
2022-09-28T12:14:34.661Z,10.09
2022-09-28T12:17:40.277Z,10.11
2022-09-28T12:20:42.599Z,10.13
2022-09-28T12:23:44.005Z,10.19
2022-09-28T12:26:57.591Z,10.25
2022-09-28T12:30:02.008Z,10.22
2022-09-28T12:33:13.191Z,10.21
2022-09-28T12:36:14.512Z,10.07
2022-09-28T12:39:53.618Z,10.03
2022-09-28T12:43:03.318Z,10.11
2022-09-28T12:46:22.032Z,10.20
2022-09-28T12:52:50.605Z,10.27
2022-09-28T12:56:01.459Z,10.38
2022-09-28T12:59:15.549Z,10.35
2022-09-28T13:02:32.488Z,10.44
2022-09-28T13:05:55.846Z,10.28
2022-09-28T13:09:16.451Z,10.19
2022-09-28T13:12:36.678Z,10.19
2022-09-28T13:15:40.069Z,10.19
2022-09-28T13:18:53.942Z,10.24
2022-09-28T13:22:00.246Z,10.31
2022-09-28T13:25:03.511Z,10.39
2022-09-28T13:28:05.288Z,10.48
2022-09-28T13:31:06.752Z,10.39
2022-09-28T13:34:10.386Z,10.42
2022-09-28T13:37:18.087Z,10.30
2022-09-28T13:40:20.145Z,10.38
2022-09-28T13:43:25.303Z,10.37
2022-09-28T13:46:26.718Z,10.33
2022-09-28T13:49:46.684Z,10.33
2022-09-28T13:52:50.339Z,10.33
2022-09-28T13:55:52.557Z,10.46
2022-09-28T13:59:12.824Z,10.40
2022-09-28T14:02:20.393Z,10.56
2022-09-28T14:05:21.740Z,10.49
2022-09-28T14:08:23.092Z,10.46
2022-09-28T14:11:27.234Z,10.39
2022-09-28T14:14:44.395Z,10.43
2022-09-28T14:17:50.461Z,10.43
2022-09-28T14:21:24.463Z,10.41
2022-09-28T14:24:27.388Z,10.37
2022-09-28T14:27:32.469Z,10.47
2022-09-28T14:30:43.091Z,10.66
2022-09-28T14:33:44.531Z,10.63
2022-09-28T14:37:06.280Z,10.68
2022-09-28T14:40:36.736Z,10.71
2022-09-28T14:43:44.214Z,10.63
2022-09-28T14:46:45.784Z,10.37
2022-09-28T14:49:47.729Z,10.48
2022-09-28T14:53:09.360Z,10.67
2022-09-28T14:56:11.830Z,10.73
2022-09-28T14:59:14.335Z,10.62
2022-09-28T15:02:19.944Z,10.70
2022-09-28T15:05:28.207Z,10.67
2022-09-28T15:08:37.171Z,10.65
2022-09-28T15:11:38.515Z,10.61
2022-09-28T15:14:45.936Z,10.77
2022-09-28T15:17:48.360Z,10.72
2022-09-28T15:20:49.798Z,10.75
2022-09-28T15:23:51.374Z,10.70
2022-09-28T15:26:53.236Z,10.73
2022-09-28T15:30:07.556Z,10.77
2022-09-28T15:33:40.785Z,10.66
2022-09-28T15:36:42.445Z,10.59
2022-09-28T15:39:48.392Z,10.51
2022-09-28T15:42:49.783Z,10.51
2022-09-28T15:45:58.522Z,10.51
2022-09-28T15:49:01.537Z,10.49
2022-09-28T15:52:03.059Z,10.49
2022-09-28T15:55:23.683Z,10.32
2022-09-28T15:58:26.459Z,10.36
2022-09-28T16:01:30.937Z,10.27
2022-09-28T16:04:38.549Z,10.19
2022-09-28T16:07:40.448Z,10.17
2022-09-28T16:10:44.655Z,10.17
2022-09-28T16:14:08.940Z,10.16
2022-09-28T16:17:13.985Z,10.05
2022-09-28T16:20:21.010Z,10.12
2022-09-28T16:23:24.117Z,10.11
2022-09-28T16:26:28.694Z,10.13
2022-09-28T16:29:33.159Z,10.12
2022-09-28T16:32:36.102Z,10.00
2022-09-28T16:35:40.557Z,9.96
2022-09-28T16:38:45.335Z,9.87
2022-09-28T16:41:51.905Z,9.84
2022-09-28T16:44:56.337Z,9.67
2022-09-28T16:47:57.804Z,9.64
2022-09-28T16:50:59.226Z,9.61
2022-09-28T16:54:25.391Z,9.53
2022-09-28T16:57:26.760Z,9.39
2022-09-28T17:00:29.953Z,9.26
2022-09-28T17:03:31.414Z,9.18
2022-09-28T17:06:32.859Z,9.08
2022-09-28T17:09:35.005Z,9.01
2022-09-28T17:12:36.396Z,8.93
2022-09-28T17:15:41.168Z,8.87
2022-09-28T17:18:42.585Z,8.81
2022-09-28T17:21:44.366Z,8.71
2022-09-28T17:24:46.171Z,8.57
2022-09-28T17:27:47.768Z,8.58
2022-09-28T17:30:49.250Z,8.39
2022-09-28T17:33:51.679Z,8.37
2022-09-28T17:36:53.032Z,8.33
2022-09-28T17:39:54.413Z,8.30
2022-09-28T17:42:56.429Z,8.26
2022-09-28T17:45:57.880Z,8.24
2022-09-28T17:49:00.010Z,8.20
2022-09-28T17:52:01.523Z,8.17
2022-09-28T17:55:02.912Z,8.12
2022-09-28T17:58:13.378Z,8.07
2022-09-28T18:01:14.834Z,7.98
2022-09-28T18:04:39.832Z,7.93
2022-09-28T18:07:38.246Z,7.86
2022-09-28T18:10:39.612Z,7.67
2022-09-28T18:13:41.078Z,7.53
2022-09-28T18:16:42.455Z,7.44
2022-09-28T18:19:43.830Z,7.40
2022-09-28T18:22:45.251Z,7.28
2022-09-28T18:25:46.737Z,7.15
2022-09-28T18:28:48.123Z,7.10
2022-09-28T18:31:49.607Z,7.09
2022-09-28T18:34:50.986Z,7.00
2022-09-28T18:37:52.403Z,7.01
2022-09-28T18:40:54.874Z,6.93
2022-09-28T18:44:00.714Z,6.91
2022-09-28T18:47:02.429Z,6.77
2022-09-28T18:50:03.887Z,6.70
2022-09-28T18:53:11.906Z,6.69
2022-09-28T18:56:14.710Z,6.67
2022-09-28T18:59:16.094Z,6.57
2022-09-28T19:02:17.548Z,6.56
2022-09-28T19:05:19.130Z,6.48
2022-09-28T19:08:23.196Z,6.45
2022-09-28T19:11:28.667Z,6.38
2022-09-28T19:14:30.111Z,6.34
2022-09-28T19:17:32.667Z,6.44
2022-09-28T19:20:34.059Z,6.34
2022-09-28T19:23:35.558Z,6.28
2022-09-28T19:26:36.922Z,6.21
2022-09-28T19:29:38.293Z,6.17
2022-09-28T19:32:39.685Z,6.16
2022-09-28T19:35:41.050Z,6.13
2022-09-28T19:38:42.464Z,6.14
2022-09-28T19:41:51.339Z,6.22
2022-09-28T19:44:52.885Z,6.23
2022-09-28T19:47:58.687Z,6.21
2022-09-28T19:51:00.871Z,6.09
2022-09-28T19:54:02.364Z,6.00
2022-09-28T19:57:07.826Z,5.97
2022-09-28T20:00:09.771Z,5.94
2022-09-28T20:03:11.182Z,5.93
2022-09-28T20:06:17.063Z,5.92
2022-09-28T20:09:19.300Z,5.93
2022-09-28T20:12:20.758Z,6.00
2022-09-28T20:15:23.778Z,6.02
2022-09-28T20:18:25.165Z,6.06
2022-09-28T20:21:26.982Z,6.10
2022-09-28T20:24:29.047Z,6.07
2022-09-28T20:27:30.407Z,6.11
2022-09-28T20:30:31.851Z,5.99
2022-09-28T20:33:33.435Z,5.96
2022-09-28T20:36:34.850Z,5.98
2022-09-28T20:39:36.259Z,5.96
2022-09-28T20:42:37.767Z,5.97
2022-09-28T20:45:39.118Z,5.84
2022-09-28T20:48:40.523Z,5.78
2022-09-28T20:51:41.912Z,5.83
2022-09-28T20:54:43.316Z,5.88
2022-09-28T20:57:45.294Z,5.92
2022-09-28T21:00:47.533Z,5.87
2022-09-28T21:03:51.728Z,5.78
2022-09-28T21:06:53.171Z,5.77
2022-09-28T21:09:54.536Z,5.75
2022-09-28T21:12:56.129Z,5.78
2022-09-28T21:15:57.558Z,5.75
2022-09-28T21:18:59.132Z,5.77
2022-09-28T21:22:00.547Z,5.86
2022-09-28T21:25:01.994Z,5.88
2022-09-28T21:28:03.360Z,5.85
2022-09-28T21:31:05.112Z,5.85
2022-09-28T21:34:06.715Z,5.87
2022-09-28T21:37:08.116Z,5.80
2022-09-28T21:40:10.627Z,5.78
2022-09-28T21:43:12.012Z,5.76
2022-09-28T21:46:13.405Z,5.75
2022-09-28T21:49:14.867Z,5.80
2022-09-28T21:52:16.558Z,5.78
2022-09-28T21:55:18.378Z,5.77
2022-09-28T21:58:22.078Z,5.83
2022-09-28T22:01:25.437Z,5.78
2022-09-28T22:04:26.883Z,5.77
2022-09-28T22:07:28.263Z,5.76
2022-09-28T22:10:29.661Z,5.74
2022-09-28T22:13:31.936Z,5.79
2022-09-28T22:16:33.310Z,5.77
2022-09-28T22:19:34.709Z,5.81
2022-09-28T22:22:36.078Z,5.82
2022-09-28T22:25:37.455Z,5.85
2022-09-28T22:28:39.902Z,5.73
2022-09-28T22:31:41.496Z,5.70
2022-09-28T22:34:42.976Z,5.72
2022-09-28T22:37:44.367Z,5.71
2022-09-28T22:40:52.663Z,5.66
2022-09-28T22:43:54.572Z,5.80
2022-09-28T22:46:55.975Z,5.81
2022-09-28T22:49:57.592Z,5.88
2022-09-28T22:52:58.981Z,5.95
2022-09-28T22:56:08.121Z,5.99
2022-09-28T22:59:09.859Z,5.99
2022-09-28T23:02:11.296Z,5.80
2022-09-28T23:05:12.693Z,5.84
2022-09-28T23:08:14.077Z,5.88
2022-09-28T23:11:15.522Z,5.76
2022-09-28T23:14:16.910Z,5.70
2022-09-28T23:17:18.585Z,5.74
2022-09-28T23:20:20.372Z,5.70
2022-09-28T23:23:21.787Z,5.72
2022-09-28T23:26:24.239Z,5.71
2022-09-28T23:29:25.900Z,5.75
2022-09-28T23:32:31.749Z,5.80
2022-09-28T23:35:33.566Z,5.77
2022-09-28T23:38:34.935Z,5.76
2022-09-28T23:41:36.311Z,5.77
2022-09-28T23:44:37.751Z,5.71
2022-09-28T23:47:39.162Z,5.75
2022-09-28T23:50:41.031Z,5.74
2022-09-28T23:53:43.308Z,5.70
2022-09-28T23:56:44.697Z,5.62
2022-09-28T23:59:46.122Z,5.57
